Miami — WDF6958 — position and weather

sailwx.info

Track history (hours):
 
Tides and Currents Weather Stations Pressure Air Temp Water Temp Dewpoint Dewpoint Depression Visibility Wind Speed Wind Dir Waves Ship Positions

Miami

Owner: Kirby Inland Marine LP, Houston, TX. More information available from US FCC via Universal Licensing System and Coast Guard Vessel Documentation Center.

Last reported at 2015-Aug-02 05:33 UTC. Time now 2015-Aug-02 06:24 UTC.
Position N 25°47' W 080°11'.

Length 23 m; draft 4 m.

Type: Other ship. MMSI: 367479630.

Date/timePositionNaut miles runAvg speedWind from/ knotsBaromVisibWave heightAir tempDewpointWater temp
2015-Aug-02 05:33N 25°47' W 080°11'0 0.0
2015-Aug-02 04:33N 25°47' W 080°11'0 0.0
2015-Aug-02 03:33N 25°47' W 080°11'0 0.0
2015-Aug-02 02:33N 25°47' W 080°11'0 0.0
2015-Aug-02 01:34N 25°47' W 080°11'0 0.0
2015-Aug-02 00:33N 25°47' W 080°11'0 0.0
2015-Aug-01 23:33N 25°47' W 080°11'0 0.0
2015-Aug-01 22:33N 25°47' W 080°11'0 0.0
2015-Aug-01 21:34N 25°47' W 080°11'0 0.0
2015-Aug-01 20:33N 25°47' W 080°11'0 0.0
2015-Aug-01 19:33N 25°47' W 080°11'0 0.0
2015-Aug-01 18:33N 25°47' W 080°11'0 0.0
2015-Aug-01 17:33N 25°47' W 080°11'0 0.4
2015-Aug-01 16:33N 25°47' W 080°10'0 0.0
2015-Aug-01 15:34N 25°47' W 080°10'0 0.0
2015-Aug-01 14:34N 25°47' W 080°10'0 0.0
2015-Aug-01 13:34N 25°47' W 080°10'0 0.1
2015-Aug-01 12:34N 25°47' W 080°10'1 0.8
2015-Aug-01 11:33N 25°46' W 080°10'1 1.4
2015-Aug-01 10:34N 25°46' W 080°08'0 0.0
2015-Aug-01 09:33N 25°46' W 080°08'0 0.0
2015-Aug-01 07:25N 25°46' W 080°08'0 0.0
2015-Aug-01 06:17N 25°46' W 080°08'0 0.0
2015-Aug-01 05:34N 25°46' W 080°08'0 0.0
2015-Aug-01 04:33N 25°46' W 080°08'0 0.0
2015-Aug-01 03:33N 25°46' W 080°08'1 1.1
2015-Aug-01 02:33N 25°46' W 080°10'1 0.9
2015-Aug-01 01:20N 25°46' W 080°08'0 0.0
2015-Aug-01 00:10N 25°46' W 080°08'0 0.0
2015-Jul-31 23:27N 25°46' W 080°08'0 0.0
2015-Jul-31 22:30N 25°46' W 080°08'1 1.1
2015-Jul-31 21:34N 25°46' W 080°10'1 0.9
2015-Jul-31 20:33N 25°46' W 080°11'0 0.0
2015-Jul-31 19:33N 25°46' W 080°11'0 0.0
2015-Jul-31 18:33N 25°46' W 080°11'0 0.0
2015-Jul-31 17:34N 25°46' W 080°11'0 0.0
2015-Jul-31 16:34N 25°46' W 080°11'0 0.0
2015-Jul-31 15:33N 25°46' W 080°11'0 0.0
2015-Jul-31 14:34N 25°46' W 080°11'0 0.0
2015-Jul-31 13:33N 25°46' W 080°11'0 0.0
2015-Jul-31 12:34N 25°46' W 080°11'1 1.4
2015-Jul-31 11:31N 25°46' W 080°09'1 1.4
2015-Jul-31 10:33N 25°46' W 080°11'0 0.0
2015-Jul-31 09:34N 25°46' W 080°11'0 0.0
2015-Jul-31 08:33N 25°46' W 080°11'0 0.0
2015-Jul-31 07:33N 25°46' W 080°11'0 0.0
2015-Jul-31 06:34N 25°46' W 080°11'0 0.0
2015-Jul-31 05:33N 25°46' W 080°11'0 0.0
2015-Jul-31 04:34N 25°46' W 080°11'0 0.0
2015-Jul-31 03:33N 25°46' W 080°11'0 0.0
2015-Jul-31 02:34N 25°46' W 080°11'0 0.0
2015-Jul-31 01:34N 25°46' W 080°11'0 0.5
2015-Jul-31 00:34N 25°46' W 080°10'1 1.3
2015-Jul-30 23:33N 25°46' W 080°09'2 2.3
2015-Jul-30 22:33N 25°47' W 080°11'0 0.0
2015-Jul-30 21:34N 25°47' W 080°11'0 0.0
2015-Jul-30 20:34N 25°47' W 080°11'0 0.0
2015-Jul-30 19:33N 25°47' W 080°11'0 0.0
2015-Jul-30 18:33N 25°47' W 080°11'1 0.6
2015-Jul-30 17:34N 25°47' W 080°10'0 0.0
2015-Jul-30 16:34N 25°47' W 080°10'0 0.0
2015-Jul-30 15:33N 25°47' W 080°10'0 0.0
2015-Jul-30 14:33N 25°47' W 080°10'0 0.0
2015-Jul-30 13:34N 25°47' W 080°10'0 0.0
2015-Jul-30 12:34N 25°47' W 080°10'0 0.0
2015-Jul-30 11:33N 25°47' W 080°10'0 0.5
2015-Jul-30 10:34N 25°46' W 080°11'2 2.0
2015-Jul-30 09:34N 25°46' W 080°08'0 0.0
2015-Jul-30 08:34N 25°46' W 080°08'0 0.0
2015-Jul-30 07:34N 25°46' W 080°08'0 0.0
2015-Jul-30 06:28N 25°46' W 080°08'0 0.0
2015-Jul-30 05:34N 25°46' W 080°08'1 1.1
2015-Jul-30 04:33N 25°46' W 080°10'0 0.0
2015-Jul-30 03:34N 25°46' W 080°10'0 0.0
2015-Jul-30 02:34N 25°46' W 080°10'0 0.0
2015-Jul-30 01:34N 25°46' W 080°10'0 0.0
2015-Jul-30 00:34N 25°46' W 080°10'0 0.0
2015-Jul-29 23:34N 25°46' W 080°10'0 0.0
2015-Jul-29 22:34N 25°46' W 080°10'1 0.6
2015-Jul-29 21:34N 25°46' W 080°10'0 0.0
2015-Jul-29 20:34N 25°46' W 080°10'0 0.0
2015-Jul-29 19:34N 25°46' W 080°10'0 0.0
2015-Jul-29 18:34N 25°46' W 080°10'1 1.0
2015-Jul-29 17:34N 25°46' W 080°09'1 0.6
2015-Jul-29 16:33N 25°46' W 080°08'2 2.0
2015-Jul-29 15:34N 25°46' W 080°11'0 0.0
2015-Jul-29 14:33N 25°46' W 080°11'0 0.0
2015-Jul-29 13:34N 25°46' W 080°11'2 2.0
2015-Jul-29 12:33N 25°46' W 080°08'0 0.0
2015-Jul-29 11:33N 25°46' W 080°08'0 0.0
2015-Jul-29 10:23N 25°46' W 080°08'0 0.0
2015-Jul-29 09:28N 25°46' W 080°08'0 0.0
2015-Jul-29 08:14N 25°46' W 080°08'0 0.0
2015-Jul-29 07:15N 25°46' W 080°08'0 0.0
2015-Jul-29 06:29N 25°46' W 080°08'0 0.0
2015-Jul-29 04:21N 25°46' W 080°09'0 0.0
2015-Jul-29 03:34N 25°46' W 080°08'0 0.0
2015-Jul-29 02:34N 25°46' W 080°09'0 0.0
2015-Jul-29 01:33N 25°46' W 080°08'0 0.0
2015-Jul-29 00:16N 25°46' W 080°08'0 0.0
2015-Jul-28 23:34N 25°46' W 080°08'1 0.6
2015-Jul-28 22:34N 25°46' W 080°09'1 1.4
2015-Jul-28 21:33N 25°46' W 080°11'0 0.0
2015-Jul-28 20:34N 25°46' W 080°11'0 0.0
2015-Jul-28 19:34N 25°46' W 080°11'0 0.0
2015-Jul-28 18:33N 25°46' W 080°11'0 0.0
2015-Jul-28 17:34N 25°46' W 080°11'0 0.0
2015-Jul-28 16:33N 25°46' W 080°11'0 0.0
2015-Jul-28 15:33N 25°46' W 080°11'0 0.0
2015-Jul-28 14:34N 25°46' W 080°11'0 0.0
2015-Jul-28 13:33N 25°46' W 080°11'0 0.0
2015-Jul-28 12:33N 25°46' W 080°11'0 0.1
2015-Jul-28 11:34N 25°46' W 080°11'0 0.0
2015-Jul-28 10:34N 25°46' W 080°11'0 0.0
2015-Jul-28 09:33N 25°46' W 080°11'0 0.0
2015-Jul-28 08:34N 25°46' W 080°11'0 0.0
2015-Jul-28 07:34N 25°46' W 080°11'1 0.8
2015-Jul-28 06:33N 25°46' W 080°10'1 0.8
2015-Jul-28 05:34N 25°46' W 080°11'0 0.0
2015-Jul-28 04:33N 25°46' W 080°11'0 0.0
2015-Jul-28 03:33N 25°46' W 080°11'0 0.0
2015-Jul-28 02:34N 25°46' W 080°11'0 0.0
2015-Jul-28 01:34N 25°46' W 080°11'0 0.0
2015-Jul-28 00:34N 25°46' W 080°11'0 0.0
2015-Jul-27 23:34N 25°46' W 080°11'0 0.0
2015-Jul-27 22:34N 25°46' W 080°11'0 0.0
2015-Jul-27 21:34N 25°46' W 080°11'0 0.0
2015-Jul-27 20:33N 25°46' W 080°11'0 0.4
2015-Jul-27 19:34N 25°46' W 080°10'0 0.4
2015-Jul-27 18:34N 25°47' W 080°10'0 0.0
2015-Jul-27 17:34N 25°47' W 080°10'0 0.0
2015-Jul-27 16:33N 25°47' W 080°10'0 0.0
2015-Jul-27 15:33N 25°47' W 080°10'0 0.0
2015-Jul-27 14:33N 25°47' W 080°10'0 0.5
2015-Jul-27 13:34N 25°46' W 080°10'0 0.5
2015-Jul-27 12:33N 25°47' W 080°10'1 0.6
2015-Jul-27 11:33N 25°47' W 080°11'2 0.9
2015-Jul-27 09:25N 25°46' W 080°09'0 0.0
2015-Jul-27 00:33N 25°46' W 080°09'2 1.6
2015-Jul-26 23:34N 25°47' W 080°11'0 0.0
2015-Jul-26 22:34N 25°47' W 080°11'0 0.0
2015-Jul-26 21:34N 25°47' W 080°11'1 1.0
2015-Jul-26 20:34N 25°46' W 080°09'1 0.7
2015-Jul-26 19:32N 25°46' W 080°09'1 1.1
2015-Jul-26 18:34N 25°46' W 080°10'0 0.0
2015-Jul-26 17:33N 25°46' W 080°10'0 0.0
2015-Jul-26 16:33N 25°46' W 080°10'0 0.0
2015-Jul-26 15:33N 25°46' W 080°10'2 1.6
2015-Jul-26 14:34N 25°46' W 080°08'2 1.6
2015-Jul-26 13:34N 25°46' W 080°10'1 0.6
2015-Jul-26 12:33N 25°46' W 080°11'2 1.9
2015-Jul-26 11:34N 25°46' W 080°09'2 1.8
2015-Jul-26 10:34N 25°46' W 080°11'0 0.0
2015-Jul-26 09:33N 25°46' W 080°11'0 0.0
2015-Jul-26 08:34N 25°46' W 080°11'0 0.0
2015-Jul-26 07:33N 25°46' W 080°11'0 0.0
2015-Jul-26 06:34N 25°46' W 080°11'0 0.0
2015-Jul-26 05:34N 25°46' W 080°11'0 0.0
2015-Jul-26 04:33N 25°46' W 080°11'0 0.0
2015-Jul-26 03:34N 25°46' W 080°11'0 0.0
2015-Jul-26 02:33N 25°46' W 080°11'0 0.0
2015-Jul-26 01:34N 25°46' W 080°11'0 0.0
2015-Jul-26 00:33N 25°46' W 080°11'0 0.0
2015-Jul-25 23:33N 25°46' W 080°11'0 0.0
2015-Jul-25 22:33N 25°46' W 080°11'0 0.0
2015-Jul-25 21:34N 25°46' W 080°11'0 0.0
2015-Jul-25 20:34N 25°46' W 080°11'0 0.0
2015-Jul-25 19:34N 25°46' W 080°11'0 0.0
2015-Jul-25 18:34N 25°46' W 080°11'1 0.6
2015-Jul-25 17:33N 25°47' W 080°10'0 0.0
2015-Jul-25 16:33N 25°47' W 080°10'0 0.0
2015-Jul-25 15:33N 25°47' W 080°10'0 0.0
2015-Jul-25 14:28N 25°47' W 080°10'0 0.0
2015-Jul-25 13:23N 25°47' W 080°10'0 0.0
2015-Jul-25 12:29N 25°47' W 080°10'0 0.2
2015-Jul-25 11:16N 25°47' W 080°10'1 0.0
2015-Jul-24 16:33N 25°47' W 080°11'0 0.0
2015-Jul-24 15:33N 25°47' W 080°11'0 0.0
2015-Jul-24 14:33N 25°47' W 080°11'0 0.0
2015-Jul-24 13:33N 25°47' W 080°11'0 0.0
2015-Jul-24 12:33N 25°47' W 080°11'0 0.2
2015-Jul-24 11:34N 25°47' W 080°11'0 0.0
2015-Jul-24 10:34N 25°47' W 080°11'0 0.0
2015-Jul-24 09:33N 25°47' W 080°11'0 0.0
2015-Jul-24 08:33N 25°47' W 080°11'0 0.0
2015-Jul-24 07:33N 25°47' W 080°11'0 0.0
2015-Jul-24 06:33N 25°47' W 080°11'0 0.0
2015-Jul-24 05:34N 25°47' W 080°11'0 0.0
2015-Jul-24 04:33N 25°47' W 080°11'1 1.2
2015-Jul-24 03:33N 25°46' W 080°10'1 0.9
2015-Jul-24 02:33N 25°46' W 080°11'0 0.0
2015-Jul-24 01:33N 25°46' W 080°11'0 0.0
2015-Jul-24 00:33N 25°46' W 080°11'0 0.0
2015-Jul-23 23:34N 25°46' W 080°11'0 0.0
2015-Jul-23 22:34N 25°46' W 080°11'0 0.0
2015-Jul-23 21:33N 25°46' W 080°11'0 0.0
2015-Jul-23 20:33N 25°46' W 080°11'0 0.0
2015-Jul-23 19:34N 25°46' W 080°11'0 0.0
2015-Jul-23 18:33N 25°46' W 080°11'0 0.4
2015-Jul-23 17:33N 25°47' W 080°11'2 0.6
2015-Jul-23 14:22N 25°46' W 080°09'2 2.1
2015-Jul-23 13:33N 25°46' W 080°11'0 0.1
2015-Jul-23 12:33N 25°46' W 080°11'0 0.0
2015-Jul-23 11:33N 25°46' W 080°11'0 0.0
2015-Jul-23 10:33N 25°46' W 080°11'0 0.0
2015-Jul-23 09:34N 25°46' W 080°11'0 0.0
2015-Jul-23 08:33N 25°46' W 080°11'0 0.0
2015-Jul-23 07:33N 25°46' W 080°11'0 0.0
2015-Jul-23 06:33N 25°46' W 080°11'0 0.0
2015-Jul-23 05:33N 25°46' W 080°11'  
Track history (hours):
 
Tides and Currents Weather Stations Pressure Air Temp Water Temp Dewpoint Dewpoint Depression Visibility Wind Speed Wind Dir Waves Ship Positions

Miami

Owner: Kirby Inland Marine LP, Houston, TX. More information available from US FCC via Universal Licensing System and Coast Guard Vessel Documentation Center.

Last reported at 2015-Aug-02 05:33 UTC. Time now 2015-Aug-02 06:24 UTC.
Position N 25°47' W 080°11'.

Length 23 m; draft 4 m.

Type: Other ship. MMSI: 367479630.

Date/timePositionNaut miles runAvg speedWind from/ knotsBaromVisibWave heightAir tempDewpointWater temp
2015-Aug-02 05:33N 25°47' W 080°11'0 0.0
2015-Aug-02 04:33N 25°47' W 080°11'0 0.0
2015-Aug-02 03:33N 25°47' W 080°11'0 0.0
2015-Aug-02 02:33N 25°47' W 080°11'0 0.0
2015-Aug-02 01:34N 25°47' W 080°11'0 0.0
2015-Aug-02 00:33N 25°47' W 080°11'0 0.0
2015-Aug-01 23:33N 25°47' W 080°11'0 0.0
2015-Aug-01 22:33N 25°47' W 080°11'0 0.0
2015-Aug-01 21:34N 25°47' W 080°11'0 0.0
2015-Aug-01 20:33N 25°47' W 080°11'0 0.0
2015-Aug-01 19:33N 25°47' W 080°11'0 0.0
2015-Aug-01 18:33N 25°47' W 080°11'0 0.0
2015-Aug-01 17:33N 25°47' W 080°11'0 0.4
2015-Aug-01 16:33N 25°47' W 080°10'0 0.0
2015-Aug-01 15:34N 25°47' W 080°10'0 0.0
2015-Aug-01 14:34N 25°47' W 080°10'0 0.0
2015-Aug-01 13:34N 25°47' W 080°10'0 0.1
2015-Aug-01 12:34N 25°47' W 080°10'1 0.8
2015-Aug-01 11:33N 25°46' W 080°10'1 1.4
2015-Aug-01 10:34N 25°46' W 080°08'0 0.0
2015-Aug-01 09:33N 25°46' W 080°08'0 0.0
2015-Aug-01 07:25N 25°46' W 080°08'0 0.0
2015-Aug-01 06:17N 25°46' W 080°08'0 0.0
2015-Aug-01 05:34N 25°46' W 080°08'0 0.0
2015-Aug-01 04:33N 25°46' W 080°08'0 0.0
2015-Aug-01 03:33N 25°46' W 080°08'1 1.1
2015-Aug-01 02:33N 25°46' W 080°10'1 0.9
2015-Aug-01 01:20N 25°46' W 080°08'0 0.0
2015-Aug-01 00:10N 25°46' W 080°08'0 0.0
2015-Jul-31 23:27N 25°46' W 080°08'0 0.0
2015-Jul-31 22:30N 25°46' W 080°08'1 1.1
2015-Jul-31 21:34N 25°46' W 080°10'1 0.9
2015-Jul-31 20:33N 25°46' W 080°11'0 0.0
2015-Jul-31 19:33N 25°46' W 080°11'0 0.0
2015-Jul-31 18:33N 25°46' W 080°11'0 0.0
2015-Jul-31 17:34N 25°46' W 080°11'0 0.0
2015-Jul-31 16:34N 25°46' W 080°11'0 0.0
2015-Jul-31 15:33N 25°46' W 080°11'0 0.0
2015-Jul-31 14:34N 25°46' W 080°11'0 0.0
2015-Jul-31 13:33N 25°46' W 080°11'0 0.0
2015-Jul-31 12:34N 25°46' W 080°11'1 1.4
2015-Jul-31 11:31N 25°46' W 080°09'1 1.4
2015-Jul-31 10:33N 25°46' W 080°11'0 0.0
2015-Jul-31 09:34N 25°46' W 080°11'0 0.0
2015-Jul-31 08:33N 25°46' W 080°11'0 0.0
2015-Jul-31 07:33N 25°46' W 080°11'0 0.0
2015-Jul-31 06:34N 25°46' W 080°11'0 0.0
2015-Jul-31 05:33N 25°46' W 080°11'0 0.0
2015-Jul-31 04:34N 25°46' W 080°11'0 0.0
2015-Jul-31 03:33N 25°46' W 080°11'0 0.0
2015-Jul-31 02:34N 25°46' W 080°11'0 0.0
2015-Jul-31 01:34N 25°46' W 080°11'0 0.5
2015-Jul-31 00:34N 25°46' W 080°10'1 1.3
2015-Jul-30 23:33N 25°46' W 080°09'2 2.3
2015-Jul-30 22:33N 25°47' W 080°11'0 0.0
2015-Jul-30 21:34N 25°47' W 080°11'0 0.0
2015-Jul-30 20:34N 25°47' W 080°11'0 0.0
2015-Jul-30 19:33N 25°47' W 080°11'0 0.0
2015-Jul-30 18:33N 25°47' W 080°11'1 0.6
2015-Jul-30 17:34N 25°47' W 080°10'0 0.0
2015-Jul-30 16:34N 25°47' W 080°10'0 0.0
2015-Jul-30 15:33N 25°47' W 080°10'0 0.0
2015-Jul-30 14:33N 25°47' W 080°10'0 0.0
2015-Jul-30 13:34N 25°47' W 080°10'0 0.0
2015-Jul-30 12:34N 25°47' W 080°10'0 0.0
2015-Jul-30 11:33N 25°47' W 080°10'0 0.5
2015-Jul-30 10:34N 25°46' W 080°11'2 2.0
2015-Jul-30 09:34N 25°46' W 080°08'0 0.0
2015-Jul-30 08:34N 25°46' W 080°08'0 0.0
2015-Jul-30 07:34N 25°46' W 080°08'0 0.0
2015-Jul-30 06:28N 25°46' W 080°08'0 0.0
2015-Jul-30 05:34N 25°46' W 080°08'1 1.1
2015-Jul-30 04:33N 25°46' W 080°10'0 0.0
2015-Jul-30 03:34N 25°46' W 080°10'0 0.0
2015-Jul-30 02:34N 25°46' W 080°10'0 0.0
2015-Jul-30 01:34N 25°46' W 080°10'0 0.0
2015-Jul-30 00:34N 25°46' W 080°10'0 0.0
2015-Jul-29 23:34N 25°46' W 080°10'0 0.0
2015-Jul-29 22:34N 25°46' W 080°10'1 0.6
2015-Jul-29 21:34N 25°46' W 080°10'0 0.0
2015-Jul-29 20:34N 25°46' W 080°10'0 0.0
2015-Jul-29 19:34N 25°46' W 080°10'0 0.0
2015-Jul-29 18:34N 25°46' W 080°10'1 1.0
2015-Jul-29 17:34N 25°46' W 080°09'1 0.6
2015-Jul-29 16:33N 25°46' W 080°08'2 2.0
2015-Jul-29 15:34N 25°46' W 080°11'0 0.0
2015-Jul-29 14:33N 25°46' W 080°11'0 0.0
2015-Jul-29 13:34N 25°46' W 080°11'2 2.0
2015-Jul-29 12:33N 25°46' W 080°08'0 0.0
2015-Jul-29 11:33N 25°46' W 080°08'0 0.0
2015-Jul-29 10:23N 25°46' W 080°08'0 0.0
2015-Jul-29 09:28N 25°46' W 080°08'0 0.0
2015-Jul-29 08:14N 25°46' W 080°08'0 0.0
2015-Jul-29 07:15N 25°46' W 080°08'0 0.0
2015-Jul-29 06:29N 25°46' W 080°08'0 0.0
2015-Jul-29 04:21N 25°46' W 080°09'0 0.0
2015-Jul-29 03:34N 25°46' W 080°08'0 0.0
2015-Jul-29 02:34N 25°46' W 080°09'0 0.0
2015-Jul-29 01:33N 25°46' W 080°08'0 0.0
2015-Jul-29 00:16N 25°46' W 080°08'0 0.0
2015-Jul-28 23:34N 25°46' W 080°08'1 0.6
2015-Jul-28 22:34N 25°46' W 080°09'1 1.4
2015-Jul-28 21:33N 25°46' W 080°11'0 0.0
2015-Jul-28 20:34N 25°46' W 080°11'0 0.0
2015-Jul-28 19:34N 25°46' W 080°11'0 0.0
2015-Jul-28 18:33N 25°46' W 080°11'0 0.0
2015-Jul-28 17:34N 25°46' W 080°11'0 0.0
2015-Jul-28 16:33N 25°46' W 080°11'0 0.0
2015-Jul-28 15:33N 25°46' W 080°11'0 0.0
2015-Jul-28 14:34N 25°46' W 080°11'0 0.0
2015-Jul-28 13:33N 25°46' W 080°11'0 0.0
2015-Jul-28 12:33N 25°46' W 080°11'0 0.1
2015-Jul-28 11:34N 25°46' W 080°11'0 0.0
2015-Jul-28 10:34N 25°46' W 080°11'0 0.0
2015-Jul-28 09:33N 25°46' W 080°11'0 0.0
2015-Jul-28 08:34N 25°46' W 080°11'0 0.0
2015-Jul-28 07:34N 25°46' W 080°11'1 0.8
2015-Jul-28 06:33N 25°46' W 080°10'1 0.8
2015-Jul-28 05:34N 25°46' W 080°11'0 0.0
2015-Jul-28 04:33N 25°46' W 080°11'0 0.0
2015-Jul-28 03:33N 25°46' W 080°11'0 0.0
2015-Jul-28 02:34N 25°46' W 080°11'0 0.0
2015-Jul-28 01:34N 25°46' W 080°11'0 0.0
2015-Jul-28 00:34N 25°46' W 080°11'0 0.0
2015-Jul-27 23:34N 25°46' W 080°11'0 0.0
2015-Jul-27 22:34N 25°46' W 080°11'0 0.0
2015-Jul-27 21:34N 25°46' W 080°11'0 0.0
2015-Jul-27 20:33N 25°46' W 080°11'0 0.4
2015-Jul-27 19:34N 25°46' W 080°10'0 0.4
2015-Jul-27 18:34N 25°47' W 080°10'0 0.0
2015-Jul-27 17:34N 25°47' W 080°10'0 0.0
2015-Jul-27 16:33N 25°47' W 080°10'0 0.0
2015-Jul-27 15:33N 25°47' W 080°10'0 0.0
2015-Jul-27 14:33N 25°47' W 080°10'0 0.5
2015-Jul-27 13:34N 25°46' W 080°10'0 0.5
2015-Jul-27 12:33N 25°47' W 080°10'1 0.6
2015-Jul-27 11:33N 25°47' W 080°11'2 0.9
2015-Jul-27 09:25N 25°46' W 080°09'0 0.0
2015-Jul-27 00:33N 25°46' W 080°09'2 1.6
2015-Jul-26 23:34N 25°47' W 080°11'0 0.0
2015-Jul-26 22:34N 25°47' W 080°11'0 0.0
2015-Jul-26 21:34N 25°47' W 080°11'1 1.0
2015-Jul-26 20:34N 25°46' W 080°09'1 0.7
2015-Jul-26 19:32N 25°46' W 080°09'1 1.1
2015-Jul-26 18:34N 25°46' W 080°10'0 0.0
2015-Jul-26 17:33N 25°46' W 080°10'0 0.0
2015-Jul-26 16:33N 25°46' W 080°10'0 0.0
2015-Jul-26 15:33N 25°46' W 080°10'2 1.6
2015-Jul-26 14:34N 25°46' W 080°08'2 1.6
2015-Jul-26 13:34N 25°46' W 080°10'1 0.6
2015-Jul-26 12:33N 25°46' W 080°11'2 1.9
2015-Jul-26 11:34N 25°46' W 080°09'2 1.8
2015-Jul-26 10:34N 25°46' W 080°11'0 0.0
2015-Jul-26 09:33N 25°46' W 080°11'0 0.0
2015-Jul-26 08:34N 25°46' W 080°11'0 0.0
2015-Jul-26 07:33N 25°46' W 080°11'0 0.0
2015-Jul-26 06:34N 25°46' W 080°11'0 0.0
2015-Jul-26 05:34N 25°46' W 080°11'0 0.0
2015-Jul-26 04:33N 25°46' W 080°11'0 0.0
2015-Jul-26 03:34N 25°46' W 080°11'0 0.0
2015-Jul-26 02:33N 25°46' W 080°11'0 0.0
2015-Jul-26 01:34N 25°46' W 080°11'0 0.0
2015-Jul-26 00:33N 25°46' W 080°11'0 0.0
2015-Jul-25 23:33N 25°46' W 080°11'0 0.0
2015-Jul-25 22:33N 25°46' W 080°11'0 0.0
2015-Jul-25 21:34N 25°46' W 080°11'0 0.0
2015-Jul-25 20:34N 25°46' W 080°11'0 0.0
2015-Jul-25 19:34N 25°46' W 080°11'0 0.0
2015-Jul-25 18:34N 25°46' W 080°11'1 0.6
2015-Jul-25 17:33N 25°47' W 080°10'0 0.0
2015-Jul-25 16:33N 25°47' W 080°10'0 0.0
2015-Jul-25 15:33N 25°47' W 080°10'0 0.0
2015-Jul-25 14:28N 25°47' W 080°10'0 0.0
2015-Jul-25 13:23N 25°47' W 080°10'0 0.0
2015-Jul-25 12:29N 25°47' W 080°10'0 0.2
2015-Jul-25 11:16N 25°47' W 080°10'1 0.0
2015-Jul-24 16:33N 25°47' W 080°11'0 0.0
2015-Jul-24 15:33N 25°47' W 080°11'0 0.0
2015-Jul-24 14:33N 25°47' W 080°11'0 0.0
2015-Jul-24 13:33N 25°47' W 080°11'0 0.0
2015-Jul-24 12:33N 25°47' W 080°11'0 0.2
2015-Jul-24 11:34N 25°47' W 080°11'0 0.0
2015-Jul-24 10:34N 25°47' W 080°11'0 0.0
2015-Jul-24 09:33N 25°47' W 080°11'0 0.0
2015-Jul-24 08:33N 25°47' W 080°11'0 0.0
2015-Jul-24 07:33N 25°47' W 080°11'0 0.0
2015-Jul-24 06:33N 25°47' W 080°11'0 0.0
2015-Jul-24 05:34N 25°47' W 080°11'0 0.0
2015-Jul-24 04:33N 25°47' W 080°11'1 1.2
2015-Jul-24 03:33N 25°46' W 080°10'1 0.9
2015-Jul-24 02:33N 25°46' W 080°11'0 0.0
2015-Jul-24 01:33N 25°46' W 080°11'0 0.0
2015-Jul-24 00:33N 25°46' W 080°11'0 0.0
2015-Jul-23 23:34N 25°46' W 080°11'0 0.0
2015-Jul-23 22:34N 25°46' W 080°11'0 0.0
2015-Jul-23 21:33N 25°46' W 080°11'0 0.0
2015-Jul-23 20:33N 25°46' W 080°11'0 0.0
2015-Jul-23 19:34N 25°46' W 080°11'0 0.0
2015-Jul-23 18:33N 25°46' W 080°11'0 0.4
2015-Jul-23 17:33N 25°47' W 080°11'2 0.6
2015-Jul-23 14:22N 25°46' W 080°09'2 2.1
2015-Jul-23 13:33N 25°46' W 080°11'0 0.1
2015-Jul-23 12:33N 25°46' W 080°11'0 0.0
2015-Jul-23 11:33N 25°46' W 080°11'0 0.0
2015-Jul-23 10:33N 25°46' W 080°11'0 0.0
2015-Jul-23 09:34N 25°46' W 080°11'0 0.0
2015-Jul-23 08:33N 25°46' W 080°11'0 0.0
2015-Jul-23 07:33N 25°46' W 080°11'0 0.0
2015-Jul-23 06:33N 25°46' W 080°11'0 0.0
2015-Jul-23 05:33N 25°46' W 080°11'  

Dump ship's entire track history